This is the latest recevied weather packets stored in our database for station/object SP1BMW-13. If no packets are shown the sender has not sent any weather packets the latest 10 day(s).
| Time | Temp. | Humidity | Pressure | Rain* | Wind** | Luminosity | Snow |
|---|---|---|---|---|---|---|---|
| 1787503561 | 18.33° C | 61% | 1017.3 hPa | 0 mm | 0.45 m/s, 126° | 56 W/m² | - |
| 1787503500 | 18.33° C | 60% | 1017.4 hPa | 0 mm | 1.34 m/s, 256° | 63 W/m² | - |
| 1787503441 | 18.33° C | 59% | 1017.4 hPa | 0 mm | 0.89 m/s, 221° | 65 W/m² | - |
| 1787503380 | 18.33° C | 58% | 1017.3 hPa | 0 mm | 1.34 m/s, 358° | 61 W/m² | - |
| 1787503321 | 18.33° C | 58% | 1017.3 hPa | 0 mm | 0.45 m/s, 175° | 56 W/m² | - |
| 1787503261 | 18.33° C | 59% | 1017.3 hPa | 0 mm | 0.89 m/s, 269° | 52 W/m² | - |
| 1787503200 | 18.33° C | 58% | 1017.3 hPa | 0 mm | 1.79 m/s, 238° | 52 W/m² | - |
| 1787503141 | 18.33° C | 58% | 1017.6 hPa | 0 mm | 1.34 m/s, 257° | 52 W/m² | - |
| 1787503080 | 18.33° C | 58% | 1017.3 hPa | 0 mm | 2.68 m/s, 84° | 51 W/m² | - |
| 1787503021 | 18.33° C | 58% | 1017.4 hPa | 0 mm | 1.79 m/s, 8° | 47 W/m² | - |
| 1787502961 | 18.33° C | 59% | 1017.3 hPa | 0 mm | 2.24 m/s, 259° | 45 W/m² | - |
| 1787502901 | 18.33° C | 59% | 1017.2 hPa | 0 mm | 1.79 m/s, 205° | 42 W/m² | - |
| 1787502841 | 18.33° C | 59% | 1017.2 hPa | 0 mm | 2.24 m/s, 207° | 41 W/m² | - |
| 1787502780 | 18.33° C | 59% | 1017.3 hPa | 0 mm | 0.89 m/s, 269° | 41 W/m² | - |
| 1787502721 | 18.33° C | 58% | 1017.2 hPa | 0 mm | 1.79 m/s, 315° | 41 W/m² | - |
| 1787502661 | 18.33° C | 59% | 1017.3 hPa | 0 mm | 0.89 m/s, 296° | 40 W/m² | - |
| 1787502600 | 18.33° C | 59% | 1017.3 hPa | 0 mm | 0.45 m/s, 295° | 40 W/m² | - |
| 1787502540 | 18.33° C | 59% | 1017.4 hPa | 0 mm | 0.89 m/s, 232° | 38 W/m² | - |
| 1787502481 | 18.33° C | 59% | 1017.4 hPa | 0 mm | 0.89 m/s, 334° | 37 W/m² | - |
| 1787502420 | 18.33° C | 58% | 1017.3 hPa | 0 mm | 0.89 m/s, 90° | 39 W/m² | - |
| 1787502360 | 18.89° C | 58% | 1017.3 hPa | 0 mm | 0.89 m/s, 245° | 42 W/m² | - |
| 1787502300 | 18.89° C | 58% | 1017.3 hPa | 0 mm | 0.89 m/s, 191° | 51 W/m² | - |
| 1787502241 | 18.89° C | 58% | 1017.2 hPa | 0 mm | 0.89 m/s, 290° | 57 W/m² | - |
| 1787502181 | 18.89° C | 58% | 1017.4 hPa | 0 mm | 0.45 m/s, 162° | 66 W/m² | - |
| 1787502120 | 18.89° C | 57% | 1017.3 hPa | 0 mm | 1.79 m/s, 308° | 76 W/m² | - |
* Rain latest hour (hover to see other rain measurements)
** Current wind speed in m/s (hover to see current wind gust speed)